createdAt,value
2023-01-15T00:01:01.319Z,91.50
2023-01-15T00:03:29.515Z,91.60
2023-01-15T00:05:57.661Z,91.50
2023-01-15T00:08:26.889Z,91.60
2023-01-15T00:10:56.193Z,91.50
2023-01-15T00:13:24.147Z,91.50
2023-01-15T00:15:52.728Z,91.50
2023-01-15T00:18:20.864Z,91.50
2023-01-15T00:20:51.442Z,91.60
2023-01-15T00:23:33.332Z,91.70
2023-01-15T00:26:25.103Z,91.70
2023-01-15T00:28:53.042Z,91.70
2023-01-15T00:31:20.970Z,91.70
2023-01-15T00:33:54.837Z,91.60
2023-01-15T00:36:23.581Z,91.60
2023-01-15T00:38:52.048Z,91.60
2023-01-15T00:41:21.930Z,92.60
2023-01-15T00:43:49.777Z,91.60
2023-01-15T00:46:17.705Z,91.60
2023-01-15T00:48:45.663Z,91.70
2023-01-15T00:51:13.606Z,91.70
2023-01-15T00:53:41.535Z,91.70
2023-01-15T00:56:09.500Z,92.00
2023-01-15T00:58:38.713Z,91.60
2023-01-15T01:01:06.788Z,91.60
2023-01-15T01:03:34.724Z,91.60
2023-01-15T01:06:03.712Z,91.60
2023-01-15T01:08:31.634Z,91.70
2023-01-15T01:11:03.926Z,91.50
2023-01-15T01:13:32.110Z,91.50
2023-01-15T01:16:01.444Z,91.60
2023-01-15T01:18:30.151Z,91.50
2023-01-15T01:20:58.061Z,91.60
2023-01-15T01:23:25.946Z,91.50
2023-01-15T01:25:54.002Z,91.50
2023-01-15T01:28:21.967Z,91.40
2023-01-15T01:30:49.843Z,91.40
2023-01-15T01:33:19.114Z,91.50
2023-01-15T01:35:49.883Z,91.30
2023-01-15T01:38:17.809Z,91.30
2023-01-15T01:40:45.699Z,91.30
2023-01-15T01:43:20.956Z,91.20
2023-01-15T01:45:49.721Z,91.20
2023-01-15T01:48:23.028Z,91.10
2023-01-15T01:50:51.915Z,91.10
2023-01-15T01:53:23.383Z,91.00
2023-01-15T01:55:52.801Z,91.10
2023-01-15T01:58:23.903Z,91.20
2023-01-15T02:00:53.786Z,91.00
2023-01-15T02:03:31.278Z,91.00
2023-01-15T02:06:02.081Z,90.80
2023-01-15T02:08:32.378Z,90.90
2023-01-15T02:11:00.327Z,90.90
2023-01-15T02:13:36.476Z,90.80
2023-01-15T02:16:12.134Z,90.80
2023-01-15T02:18:50.858Z,90.70
2023-01-15T02:21:25.423Z,90.60
2023-01-15T02:24:11.782Z,90.60
2023-01-15T02:26:59.503Z,90.50
2023-01-15T02:29:33.989Z,90.50
2023-01-15T02:32:08.577Z,90.40
2023-01-15T02:34:40.752Z,90.40
2023-01-15T02:37:13.731Z,90.40
2023-01-15T02:39:44.450Z,90.40
2023-01-15T02:42:15.176Z,90.40
2023-01-15T02:44:48.020Z,90.30
2023-01-15T02:47:19.696Z,90.30
2023-01-15T02:49:52.996Z,90.40
2023-01-15T02:52:25.307Z,90.30
2023-01-15T02:54:57.795Z,90.10
2023-01-15T02:57:29.490Z,90.20
2023-01-15T03:00:00.599Z,90.20
2023-01-15T03:02:32.496Z,90.30
2023-01-15T03:05:04.599Z,90.10
2023-01-15T03:07:37.459Z,90.10
2023-01-15T03:10:07.424Z,90.00
2023-01-15T03:12:59.413Z,90.00
2023-01-15T03:15:50.782Z,90.00
2023-01-15T03:18:23.506Z,89.80
2023-01-15T03:20:55.025Z,90.00
2023-01-15T03:23:25.411Z,90.30
2023-01-15T03:25:56.302Z,90.10
2023-01-15T03:28:28.833Z,90.30
2023-01-15T03:30:56.847Z,90.20
2023-01-15T03:33:26.456Z,90.30
2023-01-15T03:35:58.136Z,90.30
2023-01-15T03:38:29.660Z,90.40
2023-01-15T03:41:07.690Z,90.30
2023-01-15T03:43:47.968Z,89.50
2023-01-15T03:46:27.115Z,89.60
2023-01-15T03:49:02.457Z,90.20
2023-01-15T03:51:39.842Z,90.00
2023-01-15T03:54:16.701Z,90.10
2023-01-15T03:56:56.160Z,90.40
2023-01-15T03:59:33.508Z,89.70
2023-01-15T04:02:03.752Z,89.80
2023-01-15T04:04:32.887Z,90.10
2023-01-15T04:07:02.695Z,90.20
2023-01-15T04:09:31.379Z,90.10
2023-01-15T04:12:01.029Z,89.40
2023-01-15T04:14:31.783Z,90.10
2023-01-15T04:16:59.765Z,90.20
2023-01-15T04:19:27.654Z,90.10
2023-01-15T04:21:55.445Z,90.00
2023-01-15T04:24:23.572Z,90.30
2023-01-15T04:26:54.232Z,89.70
2023-01-15T04:29:26.289Z,89.50
2023-01-15T04:31:57.676Z,89.70
2023-01-15T04:34:26.554Z,90.00
2023-01-15T04:36:54.422Z,89.90
2023-01-15T04:39:22.976Z,90.00
2023-01-15T04:42:08.638Z,89.70
2023-01-15T04:44:37.641Z,89.90
2023-01-15T04:47:07.121Z,89.80
2023-01-15T04:49:35.068Z,89.80
2023-01-15T04:52:03.037Z,89.20
2023-01-15T04:54:32.328Z,90.00
2023-01-15T04:57:00.222Z,90.00
2023-01-15T04:59:28.684Z,90.00
2023-01-15T05:02:06.402Z,90.00
2023-01-15T05:04:36.617Z,90.00
2023-01-15T05:07:05.337Z,90.00
2023-01-15T05:09:33.503Z,89.50
2023-01-15T05:12:01.401Z,89.90
2023-01-15T05:14:29.429Z,90.00
2023-01-15T05:16:57.288Z,90.00
2023-01-15T05:19:25.233Z,90.10
2023-01-15T05:21:54.538Z,90.10
2023-01-15T05:24:22.776Z,90.10
2023-01-15T05:26:50.846Z,90.20
2023-01-15T05:29:18.769Z,90.30
2023-01-15T05:31:48.438Z,90.30
2023-01-15T05:34:16.531Z,90.40
2023-01-15T05:36:44.387Z,90.40
2023-01-15T05:39:13.615Z,90.30
2023-01-15T05:41:53.170Z,90.30
2023-01-15T05:44:24.043Z,90.40
2023-01-15T05:46:57.613Z,90.30
2023-01-15T05:49:27.498Z,90.20
2023-01-15T05:51:55.960Z,90.30
2023-01-15T05:54:27.091Z,90.30
2023-01-15T05:56:55.177Z,90.40
2023-01-15T05:59:26.354Z,90.40
2023-01-15T06:01:54.341Z,90.50
2023-01-15T06:04:25.509Z,90.50
2023-01-15T06:06:55.295Z,90.40
2023-01-15T06:09:25.121Z,90.30
2023-01-15T06:11:54.046Z,90.40
2023-01-15T06:14:24.360Z,90.20
2023-01-15T06:16:52.859Z,90.20
2023-01-15T06:19:21.673Z,90.00
2023-01-15T06:21:50.814Z,90.00
2023-01-15T06:24:20.136Z,89.60
2023-01-15T06:26:49.936Z,89.80
2023-01-15T06:29:20.680Z,89.80
2023-01-15T06:31:50.172Z,90.00
2023-01-15T06:34:18.123Z,90.20
2023-01-15T06:36:46.909Z,90.20
2023-01-15T06:39:14.716Z,90.40
2023-01-15T06:42:00.396Z,90.50
2023-01-15T06:44:47.608Z,90.50
2023-01-15T06:47:23.943Z,90.90
2023-01-15T06:49:54.537Z,91.00
2023-01-15T06:52:23.249Z,91.10
2023-01-15T06:54:52.047Z,91.20
2023-01-15T06:57:22.240Z,91.00
2023-01-15T06:59:52.233Z,91.10
2023-01-15T07:02:21.606Z,91.40
2023-01-15T07:04:50.050Z,90.90
2023-01-15T07:07:19.601Z,90.80
2023-01-15T07:09:47.886Z,90.80
2023-01-15T07:12:15.792Z,90.70
2023-01-15T07:14:44.133Z,90.60
2023-01-15T07:17:13.562Z,90.40
2023-01-15T07:19:41.517Z,90.40
2023-01-15T07:22:11.046Z,90.40
2023-01-15T07:24:39.404Z,90.40
2023-01-15T07:27:07.491Z,90.30
2023-01-15T07:29:35.344Z,90.30
2023-01-15T07:32:03.208Z,90.20
2023-01-15T07:34:32.909Z,90.20
2023-01-15T07:37:00.902Z,90.30
2023-01-15T07:39:31.539Z,90.10
2023-01-15T07:42:16.960Z,90.20
2023-01-15T07:45:02.387Z,90.10
2023-01-15T07:47:47.951Z,90.30
2023-01-15T07:50:25.496Z,89.90
2023-01-15T07:52:53.889Z,89.80
2023-01-15T07:55:22.736Z,89.70
2023-01-15T07:57:51.403Z,89.40
2023-01-15T08:00:23.930Z,89.40
2023-01-15T08:02:52.982Z,89.00
2023-01-15T08:05:24.877Z,89.00
2023-01-15T08:07:53.023Z,88.80
2023-01-15T08:10:21.537Z,88.90
2023-01-15T08:13:23.876Z,89.00
2023-01-15T08:15:54.384Z,89.00
2023-01-15T08:18:23.181Z,89.00
2023-01-15T08:20:52.940Z,88.90
2023-01-15T08:23:21.488Z,89.20
2023-01-15T08:25:50.061Z,89.40
2023-01-15T08:28:17.914Z,89.40
2023-01-15T08:30:45.800Z,89.40
2023-01-15T08:33:13.649Z,89.20
2023-01-15T08:35:41.487Z,89.40
2023-01-15T08:38:11.046Z,89.40
2023-01-15T08:40:58.467Z,89.50
2023-01-15T08:43:26.545Z,89.60
2023-01-15T08:45:57.901Z,89.80
2023-01-15T08:48:26.919Z,89.40
2023-01-15T08:50:54.841Z,89.80
2023-01-15T08:53:25.023Z,89.60
2023-01-15T08:55:53.000Z,89.80
2023-01-15T08:58:21.644Z,89.60
2023-01-15T09:00:50.325Z,89.50
2023-01-15T09:03:18.314Z,89.80
2023-01-15T09:05:46.889Z,89.80
2023-01-15T09:08:14.726Z,90.00
2023-01-15T09:10:43.916Z,89.80
2023-01-15T09:13:11.768Z,89.60
2023-01-15T09:15:39.610Z,89.60
2023-01-15T09:18:10.508Z,89.40
2023-01-15T09:20:38.380Z,89.50
2023-01-15T09:23:06.327Z,90.00
2023-01-15T09:25:34.216Z,89.00
2023-01-15T09:28:03.439Z,89.00
2023-01-15T09:30:31.457Z,89.10
2023-01-15T09:32:59.501Z,89.00
2023-01-15T09:35:27.373Z,88.60
2023-01-15T09:37:55.581Z,89.00
2023-01-15T09:40:47.858Z,89.40
2023-01-15T09:43:36.205Z,88.90
2023-01-15T09:46:10.597Z,88.80
2023-01-15T09:48:50.054Z,88.80
2023-01-15T09:51:28.156Z,88.80
2023-01-15T09:54:17.337Z,88.40
2023-01-15T09:56:45.879Z,88.00
2023-01-15T09:59:23.533Z,88.40
2023-01-15T10:01:54.739Z,87.70
2023-01-15T10:04:35.336Z,87.80
2023-01-15T10:07:09.705Z,87.90
2023-01-15T10:09:41.511Z,87.50
2023-01-15T10:12:34.644Z,87.30
2023-01-15T10:15:25.948Z,87.80
2023-01-15T10:17:55.986Z,87.90
2023-01-15T10:20:39.130Z,88.30
2023-01-15T11:34:59.769Z,84.40
2023-01-15T11:37:28.633Z,84.90
2023-01-15T11:40:00.632Z,85.00
2023-01-15T11:42:45.925Z,84.80
2023-01-15T11:45:34.653Z,85.40
2023-01-15T11:48:20.900Z,85.60
2023-01-15T11:50:54.917Z,85.80
2023-01-15T11:53:27.922Z,85.40
2023-01-15T11:56:04.358Z,85.60
2023-01-15T11:58:35.783Z,85.90
2023-01-15T12:01:03.863Z,86.20
2023-01-15T12:03:35.824Z,86.20
2023-01-15T12:06:09.142Z,86.90
2023-01-15T12:08:51.336Z,85.90
2023-01-15T12:11:46.890Z,86.20
2023-01-15T12:14:54.227Z,86.40
2023-01-15T12:17:40.451Z,85.90
2023-01-15T12:20:17.511Z,85.90
2023-01-15T12:23:09.055Z,86.30
2023-01-15T12:25:46.280Z,86.60
2023-01-15T12:28:18.560Z,87.10
2023-01-15T12:30:56.498Z,87.30
2023-01-15T12:33:36.678Z,87.40
2023-01-15T12:36:11.526Z,87.60
2023-01-15T12:38:51.864Z,87.60
2023-01-15T12:41:24.996Z,87.80
2023-01-15T12:44:14.241Z,87.80
2023-01-15T12:46:45.120Z,88.10
2023-01-15T12:49:25.814Z,88.10
2023-01-15T12:52:00.037Z,88.40
2023-01-15T12:54:34.692Z,88.60
2023-01-15T12:57:09.593Z,89.00
2023-01-15T12:59:42.350Z,90.10
2023-01-15T13:02:20.845Z,90.30
2023-01-15T13:04:53.206Z,90.40
2023-01-15T13:07:31.452Z,90.40
2023-01-15T13:10:09.651Z,90.50
2023-01-15T13:12:37.551Z,90.60
2023-01-15T13:15:06.583Z,90.60
2023-01-15T13:17:42.192Z,90.60
2023-01-15T13:20:24.090Z,90.70
2023-01-15T13:23:04.558Z,90.60
2023-01-15T13:26:01.454Z,90.60
2023-01-15T13:28:42.724Z,90.70
2023-01-15T13:31:31.870Z,90.60
2023-01-15T13:34:04.849Z,90.10
2023-01-15T13:36:37.933Z,90.70
2023-01-15T13:39:08.810Z,90.80
2023-01-15T13:41:55.655Z,90.80
2023-01-15T13:44:25.164Z,90.80
2023-01-15T13:47:02.836Z,90.30
2023-01-15T13:49:34.272Z,90.40
2023-01-15T13:52:04.365Z,91.20
2023-01-15T13:54:33.860Z,91.00
2023-01-15T13:57:10.204Z,91.00
2023-01-15T13:59:44.397Z,91.00
2023-01-15T14:02:27.438Z,90.70
2023-01-15T14:04:55.503Z,90.60
2023-01-15T14:07:33.497Z,90.60
2023-01-15T14:10:35.770Z,90.60
2023-01-15T14:13:36.287Z,90.60
2023-01-15T14:16:13.560Z,90.70
2023-01-15T14:18:59.605Z,90.80
2023-01-15T14:21:40.706Z,91.00
2023-01-15T14:24:51.173Z,90.80
2023-01-15T14:27:35.435Z,90.80
2023-01-15T14:30:21.803Z,90.90
2023-01-15T14:33:01.621Z,90.90
2023-01-15T14:35:35.664Z,90.90
2023-01-15T14:38:06.971Z,91.00
2023-01-15T14:40:36.131Z,90.90
2023-01-15T14:43:16.938Z,91.00
2023-01-15T14:45:50.244Z,90.80
2023-01-15T14:48:37.795Z,90.80
2023-01-15T14:51:11.224Z,90.80
2023-01-15T14:53:44.972Z,90.70
2023-01-15T14:56:19.702Z,90.60
2023-01-15T14:58:53.847Z,90.60
2023-01-15T15:01:42.772Z,90.60
2023-01-15T15:04:23.238Z,90.60
2023-01-15T15:06:54.900Z,90.60
2023-01-15T15:09:37.151Z,90.60
2023-01-15T15:12:21.598Z,90.60
2023-01-15T15:14:59.213Z,90.70
2023-01-15T15:17:35.352Z,90.80
2023-01-15T15:20:18.005Z,90.80
2023-01-15T15:22:48.858Z,90.90
2023-01-15T15:25:22.905Z,90.90
2023-01-15T15:27:50.742Z,91.00
2023-01-15T15:30:21.623Z,90.90
2023-01-15T15:32:51.280Z,90.90
2023-01-15T15:35:27.431Z,91.30
2023-01-15T15:37:56.364Z,90.70
2023-01-15T15:40:30.719Z,90.50
2023-01-15T15:43:23.711Z,90.30
2023-01-15T15:46:13.184Z,90.40
2023-01-15T15:48:45.005Z,90.10
2023-01-15T15:51:41.079Z,90.20
2023-01-15T15:54:17.750Z,90.70
2023-01-15T15:56:59.147Z,90.70
2023-01-15T15:59:33.609Z,90.90
2023-01-15T16:02:14.144Z,90.80
2023-01-15T16:04:48.011Z,91.00
2023-01-15T16:07:24.020Z,90.90
2023-01-15T16:09:55.525Z,90.80
2023-01-15T16:12:24.640Z,90.80
2023-01-15T16:14:53.535Z,90.80
2023-01-15T16:17:21.938Z,90.80
2023-01-15T16:19:51.853Z,90.90
2023-01-15T16:22:21.882Z,91.00
2023-01-15T16:24:57.450Z,91.10
2023-01-15T16:27:35.898Z,91.30
2023-01-15T16:30:04.907Z,91.30
2023-01-15T16:32:36.870Z,91.30
2023-01-15T16:35:15.748Z,91.40
2023-01-15T16:37:50.588Z,91.60
2023-01-15T16:40:27.379Z,91.70
2023-01-15T16:43:08.569Z,91.80
2023-01-15T16:45:40.027Z,91.80
2023-01-15T16:48:25.362Z,91.90
2023-01-15T16:50:54.699Z,92.00
2023-01-15T16:53:40.613Z,91.80
2023-01-15T16:56:26.717Z,91.90
2023-01-15T16:58:54.581Z,91.90
2023-01-15T17:01:34.336Z,91.80
2023-01-15T17:04:04.463Z,91.90
2023-01-15T17:06:33.726Z,91.90
2023-01-15T17:09:01.757Z,91.70
2023-01-15T17:11:33.293Z,91.70
2023-01-15T17:14:10.016Z,91.70
2023-01-15T17:16:38.182Z,92.10
2023-01-15T17:19:08.139Z,91.90
2023-01-15T17:21:38.873Z,91.90
2023-01-15T17:24:08.022Z,91.90
2023-01-15T17:26:36.677Z,91.80
2023-01-15T17:29:04.957Z,91.90
2023-01-15T17:31:36.006Z,91.90
2023-01-15T17:34:04.819Z,92.00
2023-01-15T17:36:34.505Z,92.00
2023-01-15T17:39:03.872Z,91.90
2023-01-15T17:41:31.753Z,92.00
2023-01-15T17:43:59.592Z,92.00
2023-01-15T17:46:28.771Z,91.80
2023-01-15T17:48:56.646Z,91.80
2023-01-15T17:51:24.505Z,91.80
2023-01-15T17:53:52.732Z,91.70
2023-01-15T17:56:39.478Z,91.70
2023-01-15T17:59:27.209Z,91.90
2023-01-15T18:02:12.830Z,91.80
2023-01-15T18:05:02.753Z,91.90
2023-01-15T18:07:37.430Z,91.70
2023-01-15T18:10:06.759Z,91.80
2023-01-15T18:12:35.965Z,91.70
2023-01-15T18:15:03.941Z,91.70
2023-01-15T18:17:31.840Z,91.60
2023-01-15T18:19:59.737Z,91.60
2023-01-15T18:22:27.650Z,91.60
2023-01-15T18:24:55.462Z,91.60
2023-01-15T18:27:29.685Z,91.50
2023-01-15T18:29:59.211Z,91.50
2023-01-15T18:32:30.412Z,91.50
2023-01-15T18:34:58.355Z,91.50
2023-01-15T18:37:26.296Z,91.70
2023-01-15T18:39:54.169Z,91.40
2023-01-15T18:42:50.750Z,91.40
2023-01-15T18:45:37.753Z,91.20
2023-01-15T18:48:05.873Z,91.30
2023-01-15T18:50:33.720Z,91.20
2023-01-15T18:53:01.610Z,91.20
2023-01-15T18:55:29.446Z,91.10
2023-01-15T18:57:57.920Z,91.10
2023-01-15T19:00:27.222Z,91.00
2023-01-15T19:02:55.088Z,91.00
2023-01-15T19:05:23.652Z,90.90
2023-01-15T19:07:51.835Z,90.80
2023-01-15T19:10:20.845Z,90.70
2023-01-15T19:12:49.613Z,90.90
2023-01-15T19:15:37.025Z,90.90
2023-01-15T19:18:24.374Z,90.90
2023-01-15T19:20:52.713Z,90.80
2023-01-15T19:23:22.022Z,90.70
2023-01-15T19:25:52.716Z,90.80
2023-01-15T19:28:22.141Z,90.80
2023-01-15T19:31:12.669Z,90.80
2023-01-15T19:33:41.973Z,90.80
2023-01-15T19:36:10.643Z,90.70
2023-01-15T19:38:39.652Z,90.80
2023-01-15T19:41:29.114Z,90.80
2023-01-15T19:44:14.667Z,90.80
2023-01-15T19:47:00.466Z,90.80
2023-01-15T19:49:53.152Z,90.80
2023-01-15T19:52:36.757Z,90.80
2023-01-15T19:55:07.848Z,91.10
2023-01-15T19:57:35.872Z,90.80
2023-01-15T20:00:03.878Z,90.80
2023-01-15T20:02:33.052Z,90.70
2023-01-15T20:05:02.220Z,90.80
2023-01-15T20:07:30.456Z,90.80
2023-01-15T20:09:58.304Z,90.90
2023-01-15T20:12:43.560Z,90.70
2023-01-15T20:15:11.601Z,90.80
2023-01-15T20:17:41.237Z,90.80
2023-01-15T20:20:11.886Z,90.80
2023-01-15T20:22:40.030Z,90.90
2023-01-15T20:25:09.048Z,90.90
2023-01-15T20:27:39.866Z,90.90
2023-01-15T20:30:10.655Z,90.90
2023-01-15T20:32:39.916Z,91.00
2023-01-15T20:35:13.247Z,91.00
2023-01-15T20:37:41.453Z,91.10
2023-01-15T20:40:11.233Z,91.00
2023-01-15T20:42:56.809Z,91.10
2023-01-15T20:45:24.758Z,91.20
2023-01-15T20:48:10.256Z,91.10
2023-01-15T20:50:41.654Z,91.10
2023-01-15T20:53:10.884Z,91.20
2023-01-15T20:55:54.782Z,91.20
2023-01-15T20:58:25.291Z,91.10
2023-01-15T21:00:56.356Z,91.40
2023-01-15T21:03:24.689Z,91.30
2023-01-15T21:05:57.761Z,91.40
2023-01-15T21:08:25.767Z,91.40
2023-01-15T21:10:54.737Z,91.40
2023-01-15T21:13:24.342Z,91.40
2023-01-15T21:15:57.877Z,91.40
2023-01-15T21:18:26.292Z,91.50
2023-01-15T21:20:55.839Z,91.60
2023-01-15T21:23:24.425Z,91.80
2023-01-15T21:25:59.436Z,91.80
2023-01-15T21:28:27.239Z,91.80
2023-01-15T21:30:55.114Z,92.10
2023-01-15T21:33:23.549Z,92.00
2023-01-15T21:35:55.635Z,92.00
2023-01-15T21:38:23.613Z,91.90
2023-01-15T21:40:51.808Z,92.20
2023-01-15T21:43:36.963Z,92.00
2023-01-15T21:46:05.774Z,92.10
2023-01-15T21:48:34.112Z,92.20
2023-01-15T21:51:06.911Z,92.20
2023-01-15T21:53:34.813Z,92.20
2023-01-15T21:56:02.629Z,92.20
2023-01-15T21:58:30.494Z,92.20
2023-01-15T22:00:59.515Z,92.20
2023-01-15T22:03:28.622Z,92.10
2023-01-15T22:05:56.562Z,92.10
2023-01-15T22:08:25.775Z,92.00
2023-01-15T22:10:53.771Z,92.00
2023-01-15T22:13:22.003Z,91.90
2023-01-15T22:15:54.848Z,92.00
2023-01-15T22:18:25.731Z,92.00
2023-01-15T22:20:58.413Z,92.00
2023-01-15T22:23:27.940Z,92.00
2023-01-15T22:25:55.834Z,92.00
2023-01-15T22:28:24.338Z,91.90
2023-01-15T22:30:52.826Z,92.00
2023-01-15T22:33:20.880Z,91.80
2023-01-15T22:35:57.599Z,91.90
2023-01-15T22:38:26.944Z,91.90
2023-01-15T22:40:54.895Z,91.90
2023-01-15T22:43:23.474Z,91.90
2023-01-15T22:45:54.401Z,91.70
2023-01-15T22:48:24.876Z,91.80
2023-01-15T22:50:52.813Z,91.70
2023-01-15T22:53:20.914Z,91.80
2023-01-15T22:55:57.501Z,91.80
2023-01-15T22:58:25.934Z,91.90
2023-01-15T23:00:55.900Z,91.80
2023-01-15T23:03:23.944Z,91.70
2023-01-15T23:05:52.320Z,91.70
2023-01-15T23:08:20.212Z,91.60
2023-01-15T23:10:51.074Z,91.60
2023-01-15T23:13:21.694Z,91.80
2023-01-15T23:15:57.868Z,91.80
2023-01-15T23:18:25.824Z,91.80
2023-01-15T23:20:53.795Z,91.70
2023-01-15T23:23:21.992Z,91.70
2023-01-15T23:25:50.683Z,91.70
2023-01-15T23:28:19.887Z,91.80
2023-01-15T23:30:47.825Z,91.40
2023-01-15T23:33:15.695Z,91.80
2023-01-15T23:35:45.273Z,91.70
2023-01-15T23:38:13.412Z,91.80
2023-01-15T23:40:44.564Z,91.80
2023-01-15T23:43:31.304Z,91.80
2023-01-15T23:46:20.887Z,91.80
2023-01-15T23:48:49.650Z,92.00
2023-01-15T23:51:17.600Z,91.80
2023-01-15T23:53:45.396Z,91.80
2023-01-15T23:56:13.247Z,91.90
2023-01-15T23:58:41.096Z,91.90
